Time;durP1;ratioP1;P1;durP2;ratioP2;P2;SDS_P1;SDS_P2;PMS_P1;PMS_P2;Temp;Humidity;BMP_temperature;BMP_pressure;BME280_temperature;BME280_humidity;BME280_pressure;Samples;Min_cycle;Max_cycle;Signal;HPM_P1;HPM_P2
2022/11/17 03:02:12;;;;;;;11.43;10.70;;;9.40;99.90;;;;;;5365931;23;20235;-84
2022/11/17 03:04:46;;;;;;;10.40;9.70;;;9.40;99.90;;;;;;4907808;29;20212;-84
2022/11/17 03:07:34;;;;;;;10.53;9.93;;;9.50;99.90;;;;;;4910724;29;20223;-84
2022/11/17 03:10:11;;;;;;;10.67;9.97;;;9.60;99.90;;;;;;4914859;29;20215;-84
2022/11/17 03:12:44;;;;;;;11.33;10.53;;;9.60;99.90;;;;;;4901489;29;20224;-85
2022/11/17 03:15:24;;;;;;;12.30;11.60;;;9.70;99.90;;;;;;4893431;29;20201;-80
2022/11/17 03:18:01;;;;;;;11.87;10.97;;;9.70;99.90;;;;;;4890530;29;20201;-84
2022/11/17 03:20:34;;;;;;;11.43;10.63;;;9.80;99.90;;;;;;4900909;29;20999;-84
2022/11/17 03:23:07;;;;;;;11.73;10.93;;;9.80;99.90;;;;;;4899982;29;20272;-83
2022/11/17 03:25:36;;;;;;;10.33;9.70;;;9.80;99.90;;;;;;4898114;29;20204;-84
2022/11/17 03:28:06;;;;;;;10.63;9.93;;;9.80;99.90;;;;;;4898836;29;20205;-84
2022/11/17 03:30:35;;;;;;;11.07;10.27;;;9.80;99.90;;;;;;4899594;29;20212;-84
2022/11/17 03:33:09;;;;;;;11.77;10.97;;;9.70;99.90;;;;;;4898927;29;20211;-82
2022/11/17 03:35:40;;;;;;;11.57;10.80;;;9.70;99.90;;;;;;4899873;29;20203;-84
2022/11/17 03:38:12;;;;;;;12.00;11.10;;;9.60;99.90;;;;;;4901013;29;20228;-83
2022/11/17 03:40:43;;;;;;;13.20;12.30;;;9.60;99.90;;;;;;4896335;29;20248;-84
2022/11/17 03:43:13;;;;;;;11.90;11.10;;;9.60;99.90;;;;;;4898356;29;20204;-83
2022/11/17 03:45:44;;;;;;;12.20;11.33;;;9.50;99.90;;;;;;4899381;29;20212;-84
2022/11/17 03:48:17;;;;;;;11.87;11.07;;;9.50;99.90;;;;;;4897895;29;20213;-83
2022/11/17 03:50:47;;;;;;;12.23;11.43;;;9.50;99.90;;;;;;4897857;29;20747;-85
2022/11/17 03:53:14;;;;;;;11.97;11.17;;;9.40;99.90;;;;;;4901047;29;20215;-84
2022/11/17 03:55:54;;;;;;;12.53;11.63;;;9.40;99.90;;;;;;4900850;29;20669;-85
2022/11/17 03:58:24;;;;;;;12.87;12.07;;;9.40;99.90;;;;;;4894933;29;20199;-84
2022/11/17 04:00:53;;;;;;;13.30;12.43;;;9.40;99.90;;;;;;4883623;29;20244;-82
2022/11/17 04:03:23;;;;;;;12.60;11.80;;;9.40;99.90;;;;;;4905038;29;20592;-88
2022/11/17 04:05:50;;;;;;;12.50;11.70;;;9.40;99.90;;;;;;4885584;29;20207;-82
2022/11/17 04:08:18;;;;;;;12.80;12.00;;;9.30;99.90;;;;;;4899990;29;20207;-85
2022/11/17 04:16:13;;;;;;;12.23;11.43;;;9.30;99.90;;;;;;4896265;29;20681;-81
2022/11/17 04:18:42;;;;;;;13.10;12.20;;;9.40;99.90;;;;;;4892865;29;20217;-81
2022/11/17 04:21:08;;;;;;;12.47;11.67;;;9.40;99.90;;;;;;4898216;29;20224;-82
2022/11/17 04:23:35;;;;;;;13.60;12.70;;;9.40;99.90;;;;;;4895896;29;20205;-82
2022/11/17 04:28:49;;;;;;;14.13;13.17;;;9.40;99.90;;;;;;4896750;29;20184;-82
2022/11/17 04:31:18;;;;;;;12.77;11.90;;;9.40;99.90;;;;;;4897374;29;20216;-81
2022/11/17 04:33:48;;;;;;;13.03;12.13;;;9.40;99.90;;;;;;4898670;29;20689;-80
2022/11/17 04:36:17;;;;;;;13.13;12.33;;;9.40;99.90;;;;;;4897727;29;20220;-80
2022/11/17 04:38:45;;;;;;;13.17;12.27;;;9.40;99.90;;;;;;4899219;29;20208;-81
2022/11/17 04:43:58;;;;;;;13.00;12.20;;;9.40;99.90;;;;;;4900055;29;20259;-78
2022/11/17 04:46:26;;;;;;;12.97;11.97;;;9.40;99.90;;;;;;4890805;29;20211;-78
2022/11/17 04:48:55;;;;;;;13.03;12.03;;;9.50;99.90;;;;;;4893054;29;20574;-78
2022/11/17 04:51:22;;;;;;;12.80;11.80;;;9.50;99.90;;;;;;4899049;29;20262;-78
2022/11/17 04:53:50;;;;;;;12.73;11.93;;;9.60;99.90;;;;;;4892636;29;20228;-78
2022/11/17 04:56:19;;;;;;;12.80;12.00;;;9.60;99.90;;;;;;4889105;29;20209;-79
2022/11/17 04:58:46;;;;;;;13.47;12.57;;;9.50;99.90;;;;;;4893004;29;20201;-78
2022/11/17 05:01:12;;;;;;;13.10;12.10;;;9.50;99.90;;;;;;4896948;29;20248;-79
2022/11/17 05:03:44;;;;;;;12.70;11.90;;;9.50;99.90;;;;;;4894194;29;20434;-78
2022/11/17 05:06:14;;;;;;;8.52;7.93;;;9.60;99.90;;;;;;4894651;29;20539;-78
2022/11/17 05:08:41;;;;;;;12.50;11.80;;;9.60;99.90;;;;;;4893565;29;20272;-79
2022/11/17 05:13:54;;;;;;;12.10;11.40;;;9.60;99.90;;;;;;4893081;29;20861;-79
2022/11/17 05:19:08;;;;;;;12.10;11.40;;;9.70;99.90;;;;;;4894599;29;20290;-79
2022/11/17 05:21:37;;;;;;;11.63;10.93;;;9.70;99.90;;;;;;4892129;29;20216;-78
2022/11/17 05:24:03;;;;;;;11.60;10.90;;;9.70;99.90;;;;;;4897293;29;20223;-78
2022/11/17 05:26:33;;;;;;;11.83;11.17;;;9.70;99.90;;;;;;4897777;29;20580;-79
2022/11/17 05:29:01;;;;;;;12.20;11.50;;;9.70;99.90;;;;;;4894807;29;20208;-79
2022/11/17 05:31:29;;;;;;;12.17;11.47;;;9.70;99.90;;;;;;4890617;29;20212;-78
2022/11/17 05:33:56;;;;;;;11.97;11.27;;;9.80;99.90;;;;;;4897205;29;20232;-79
2022/11/17 05:36:25;;;;;;;12.40;11.70;;;9.80;99.90;;;;;;4898659;29;20216;-79
2022/11/17 05:38:54;;;;;;;12.20;11.50;;;9.90;99.90;;;;;;4898469;29;20280;-79
2022/11/17 05:41:22;;;;;;;12.23;11.53;;;9.80;99.90;;;;;;4894075;29;20702;-79
2022/11/17 05:43:50;;;;;;;12.10;11.40;;;9.90;99.90;;;;;;4897565;29;20204;-79
2022/11/17 05:46:17;;;;;;;12.20;11.40;;;9.90;99.90;;;;;;4894979;29;20215;-79
2022/11/17 05:48:44;;;;;;;12.37;11.67;;;9.80;99.90;;;;;;4896203;29;20236;-79
2022/11/17 05:51:12;;;;;;;12.00;11.30;;;9.80;99.90;;;;;;4896598;29;20212;-78
2022/11/17 05:53:38;;;;;;;12.63;11.83;;;9.90;99.90;;;;;;4898628;29;20197;-78
2022/11/17 05:56:15;;;;;;;11.90;11.30;;;9.90;99.90;;;;;;4894937;29;20204;-79
2022/11/17 05:58:46;;;;;;;12.37;11.60;;;9.90;99.90;;;;;;4895501;29;20196;-78
2022/11/17 06:01:15;;;;;;;11.97;11.27;;;9.80;99.90;;;;;;4894801;29;20233;-79
2022/11/17 06:03:46;;;;;;;9.93;9.32;;;9.80;99.90;;;;;;4891320;29;20436;-79
2022/11/17 06:06:13;;;;;;;12.60;11.90;;;9.70;99.90;;;;;;4890224;29;20212;-78
2022/11/17 06:08:40;;;;;;;12.10;11.37;;;9.70;99.90;;;;;;4898469;29;20193;-79
2022/11/17 06:11:08;;;;;;;12.40;11.60;;;9.60;99.90;;;;;;4889784;29;20213;-78
2022/11/17 06:13:35;;;;;;;11.87;11.20;;;9.60;99.90;;;;;;4896559;29;20201;-79
2022/11/17 06:16:05;;;;;;;12.20;11.50;;;9.50;99.90;;;;;;4890760;29;20196;-78
2022/11/17 06:18:35;;;;;;;12.27;11.47;;;9.50;99.90;;;;;;4890757;29;20204;-79
2022/11/17 06:21:02;;;;;;;12.53;11.83;;;9.50;99.90;;;;;;4896442;29;20228;-78
2022/11/17 06:23:33;;;;;;;13.53;12.73;;;9.50;99.90;;;;;;4889110;29;20204;-78
2022/11/17 06:26:03;;;;;;;13.57;12.70;;;9.50;99.90;;;;;;4893371;29;20197;-78
2022/11/17 06:28:33;;;;;;;12.67;11.97;;;9.50;99.90;;;;;;4894524;29;20196;-78
2022/11/17 06:31:01;;;;;;;13.18;12.48;;;9.60;99.90;;;;;;4891405;29;20489;-78
2022/11/17 06:33:30;;;;;;;13.33;12.63;;;9.60;99.90;;;;;;4886744;29;20204;-79
2022/11/17 06:36:00;;;;;;;12.77;12.07;;;9.60;99.90;;;;;;4893766;29;20216;-79
2022/11/17 06:38:28;;;;;;;12.83;12.13;;;9.60;99.90;;;;;;4894153;29;20672;-78
2022/11/17 06:40:55;;;;;;;13.50;12.70;;;9.60;99.90;;;;;;4896729;29;20292;-79
2022/11/17 06:43:22;;;;;;;12.40;11.70;;;9.60;99.90;;;;;;4897957;29;20201;-78
2022/11/17 06:45:50;;;;;;;12.70;12.00;;;9.60;99.90;;;;;;4899093;29;20684;-78
2022/11/17 06:48:25;;;;;;;12.80;12.00;;;9.60;99.90;;;;;;4900101;29;20205;-82
2022/11/17 06:50:53;;;;;;;12.30;11.60;;;9.50;99.90;;;;;;4892147;29;20314;-81
2022/11/17 06:53:21;;;;;;;12.57;11.60;;;9.50;99.90;;;;;;4899409;29;20669;-81
2022/11/17 06:55:50;;;;;;;11.67;10.97;;;9.50;99.90;;;;;;4900109;29;20685;-81
2022/11/17 06:58:17;;;;;;;12.00;11.30;;;9.50;99.90;;;;;;4898096;29;20448;-81
2022/11/17 07:00:44;;;;;;;7.38;6.88;;;9.50;99.90;;;;;;4898924;29;20820;-86
2022/11/17 07:03:13;;;;;;;11.87;11.27;;;9.60;99.90;;;;;;4892959;29;20504;-88
2022/11/17 07:05:40;;;;;;;11.20;10.60;;;9.70;99.90;;;;;;4900705;29;20206;-87
2022/11/17 07:08:07;;;;;;;11.30;10.60;;;9.70;99.90;;;;;;4893530;29;20241;-87
2022/11/17 07:10:36;;;;;;;10.93;10.33;;;9.80;99.90;;;;;;4901047;29;20200;-87
2022/11/17 07:13:03;;;;;;;11.55;10.80;;;9.90;99.90;;;;;;4897331;29;20444;-87
2022/11/17 07:15:30;;;;;;;11.63;10.93;;;10.10;99.90;;;;;;4899333;29;20208;-87
2022/11/17 07:17:58;;;;;;;11.30;10.50;;;10.10;99.90;;;;;;4899374;29;20312;-87
2022/11/17 07:20:26;;;;;;;11.57;10.87;;;10.30;99.90;;;;;;4895791;29;20702;-87
2022/11/17 07:22:58;;;;;;;11.97;11.20;;;10.40;99.90;;;;;;4895257;29;20204;-88
2022/11/17 07:25:25;;;;;;;11.43;10.77;;;10.50;99.90;;;;;;4899741;29;20209;-87
2022/11/17 07:27:58;;;;;;;11.87;11.07;;;10.60;99.90;;;;;;4915344;29;20227;-88
2022/11/17 07:30:25;;;;;;;11.70;10.90;;;10.70;99.90;;;;;;4897548;29;20289;-87
2022/11/17 07:32:52;;;;;;;11.47;10.77;;;10.80;99.90;;;;;;4896214;29;20531;-87
2022/11/17 07:35:19;;;;;;;12.43;11.60;;;10.90;99.90;;;;;;4898255;29;20677;-79
2022/11/17 07:37:47;;;;;;;11.60;10.77;;;11.00;99.90;;;;;;4894913;29;20213;-87
2022/11/17 07:40:15;;;;;;;11.77;10.87;;;11.00;99.90;;;;;;4896387;29;20240;-86
2022/11/17 07:42:42;;;;;;;11.93;11.07;;;11.00;99.90;;;;;;4888683;29;20226;-82
2022/11/17 07:45:09;;;;;;;10.87;10.17;;;11.00;99.90;;;;;;4897494;29;20209;-86
2022/11/17 07:47:36;;;;;;;12.03;10.93;;;11.00;99.90;;;;;;4894953;29;20209;-86
2022/11/17 07:50:04;;;;;;;11.30;10.70;;;11.00;99.90;;;;;;4898282;29;20208;-86
2022/11/17 07:52:31;;;;;;;11.90;11.00;;;10.90;99.90;;;;;;4892858;29;20232;-86
2022/11/17 07:54:59;;;;;;;11.60;10.60;;;10.90;99.90;;;;;;4897722;29;20661;-85
2022/11/17 07:57:27;;;;;;;11.77;11.07;;;10.90;99.90;;;;;;4899764;29;20210;-86
2022/11/17 07:59:54;;;;;;;11.57;10.70;;;10.90;99.90;;;;;;4899423;29;20205;-85
2022/11/17 08:02:21;;;;;;;11.60;10.70;;;10.90;99.90;;;;;;4898105;29;20625;-85
2022/11/17 08:04:48;;;;;;;11.60;10.90;;;10.80;99.90;;;;;;4888611;29;20212;-85
2022/11/17 08:07:15;;;;;;;11.70;10.80;;;10.90;99.90;;;;;;4895897;29;20244;-85
2022/11/17 08:09:42;;;;;;;11.70;10.90;;;10.80;99.90;;;;;;4896707;29;20205;-86
2022/11/17 08:12:10;;;;;;;11.40;10.70;;;10.80;99.90;;;;;;4897509;29;20231;-86
2022/11/17 08:14:37;;;;;;;11.70;10.93;;;10.80;99.90;;;;;;4895206;29;20254;-85
2022/11/17 08:17:03;;;;;;;11.73;10.83;;;10.90;99.90;;;;;;4891992;29;20204;-85
2022/11/17 08:19:30;;;;;;;12.10;11.07;;;10.90;99.90;;;;;;4910960;29;20250;-86
2022/11/17 08:21:57;;;;;;;11.87;11.07;;;10.90;99.90;;;;;;4899608;29;20223;-85
2022/11/17 08:24:24;;;;;;;12.37;11.47;;;11.00;99.90;;;;;;4908011;29;20411;-86
2022/11/17 08:26:52;;;;;;;12.10;11.30;;;11.00;99.90;;;;;;4897732;29;20216;-85
2022/11/17 08:29:20;;;;;;;11.80;10.90;;;11.00;99.90;;;;;;4905887;29;20202;-86
2022/11/17 08:31:47;;;;;;;12.07;10.97;;;11.00;99.90;;;;;;4897237;29;20213;-86
2022/11/17 08:34:14;;;;;;;12.60;11.70;;;11.00;99.90;;;;;;4889822;29;20269;-85
2022/11/17 08:36:41;;;;;;;11.40;10.70;;;11.00;99.90;;;;;;4897494;29;20209;-86
2022/11/17 08:39:08;;;;;;;12.30;11.30;;;11.10;99.90;;;;;;4896406;29;20205;-85
2022/11/17 08:41:35;;;;;;;11.77;10.77;;;11.10;99.90;;;;;;4890477;29;20235;-86
2022/11/17 08:44:01;;;;;;;11.07;10.37;;;11.10;99.90;;;;;;4894407;29;20216;-86
2022/11/17 08:46:30;;;;;;;11.70;10.80;;;11.10;99.90;;;;;;4896042;29;20202;-86
2022/11/17 08:48:56;;;;;;;12.33;11.40;;;11.20;99.90;;;;;;4891189;29;20217;-86
2022/11/17 08:51:23;;;;;;;12.00;11.20;;;11.30;99.90;;;;;;4898599;29;20233;-86
2022/11/17 08:53:50;;;;;;;11.80;11.10;;;11.30;99.90;;;;;;4896295;29;20213;-85
2022/11/17 08:56:17;;;;;;;12.00;11.30;;;11.40;99.90;;;;;;4899277;29;20202;-86
2022/11/17 08:58:45;;;;;;;11.80;11.00;;;11.50;99.90;;;;;;4901297;29;20245;-86
2022/11/17 09:01:15;;;;;;;10.70;10.10;;;11.50;99.90;;;;;;4889749;29;20244;-85
2022/11/17 09:03:45;;;;;;;10.40;9.70;;;11.60;99.90;;;;;;4899560;29;20203;-86
2022/11/17 09:06:13;;;;;;;10.40;9.80;;;11.70;99.90;;;;;;4896555;29;20205;-86
2022/11/17 09:08:40;;;;;;;11.10;10.47;;;11.70;99.90;;;;;;4899029;29;20221;-86
2022/11/17 09:11:08;;;;;;;11.47;10.67;;;11.80;99.90;;;;;;4889613;29;20242;-86
2022/11/17 09:13:36;;;;;;;11.80;11.10;;;11.90;99.90;;;;;;4896202;29;20234;-86
2022/11/17 09:16:04;;;;;;;11.70;10.97;;;11.90;99.90;;;;;;4899784;29;20212;-86
2022/11/17 09:18:31;;;;;;;11.23;10.27;;;11.90;99.90;;;;;;4891579;29;20226;-84
2022/11/17 09:21:03;;;;;;;10.97;10.37;;;11.90;99.90;;;;;;4897719;29;20232;-86
2022/11/17 09:23:30;;;;;;;11.50;10.60;;;11.90;99.90;;;;;;4886286;29;20204;-85
2022/11/17 09:25:58;;;;;;;10.53;9.83;;;11.80;99.90;;;;;;4897715;29;20726;-86
2022/11/17 09:28:25;;;;;;;10.73;10.03;;;11.80;99.90;;;;;;4895175;29;20216;-86
2022/11/17 09:30:52;;;;;;;10.70;9.90;;;11.80;99.90;;;;;;4893984;29;20258;-87
2022/11/17 09:33:19;;;;;;;11.20;10.50;;;11.80;99.90;;;;;;4895210;29;20215;-87
2022/11/17 09:35:46;;;;;;;11.53;10.80;;;11.80;99.90;;;;;;4896590;29;20210;-86
2022/11/17 09:38:14;;;;;;;10.90;10.30;;;11.80;99.90;;;;;;4897931;29;20208;-86
2022/11/17 09:40:42;;;;;;;11.00;10.33;;;11.70;99.90;;;;;;4892988;29;20196;-86
2022/11/17 09:43:28;;;;;;;10.73;9.93;;;11.70;99.90;;;;;;4888687;29;20210;-86
2022/11/17 09:46:00;;;;;;;10.90;10.07;;;11.70;99.90;;;;;;4892524;29;20217;-86
2022/11/17 09:48:37;;;;;;;10.57;9.83;;;11.60;99.90;;;;;;4896737;29;20210;-86
2022/11/17 09:51:06;;;;;;;9.80;9.20;;;11.60;99.90;;;;;;4896759;29;20230;-86
2022/11/17 09:53:40;;;;;;;10.37;9.73;;;11.60;99.90;;;;;;4897535;29;20203;-86
2022/11/17 09:56:11;;;;;;;9.90;9.40;;;11.70;99.90;;;;;;4893162;29;20255;-86
2022/11/17 09:58:43;;;;;;;10.00;9.30;;;11.80;99.90;;;;;;4896319;29;20207;-86
2022/11/17 10:01:12;;;;;;;9.77;9.27;;;11.90;99.90;;;;;;4888850;29;20341;-87
2022/11/17 10:03:40;;;;;;;10.00;9.40;;;12.00;99.90;;;;;;4895649;29;20194;-85
2022/11/17 10:06:13;;;;;;;10.35;9.70;;;12.00;99.90;;;;;;4895381;29;20460;-87
2022/11/17 10:08:46;;;;;;;9.50;9.00;;;12.10;99.90;;;;;;4893027;29;20201;-87
2022/11/17 10:11:34;;;;;;;9.43;8.87;;;12.20;99.90;;;;;;4895813;29;20259;-86
2022/11/17 10:14:13;;;;;;;9.60;9.00;;;12.30;99.90;;;;;;4886321;29;20204;-86
2022/11/17 10:16:42;;;;;;;9.73;9.13;;;12.30;99.90;;;;;;4893570;29;20200;-85
2022/11/17 10:19:16;;;;;;;9.77;9.17;;;12.30;99.90;;;;;;4893082;29;20664;-87
2022/11/17 10:21:43;;;;;;;9.40;8.90;;;12.20;99.90;;;;;;4896155;29;20227;-86
2022/11/17 10:24:32;;;;;;;9.53;8.83;;;12.20;99.90;;;;;;4894679;29;20579;-86
2022/11/17 10:26:58;;;;;;;9.50;8.90;;;12.20;99.90;;;;;;4908104;29;20203;-87
2022/11/17 10:29:25;;;;;;;9.70;9.00;;;12.30;99.90;;;;;;4886695;29;20212;-87
2022/11/17 10:31:52;;;;;;;9.67;8.97;;;12.40;99.90;;;;;;4890831;29;20223;-86
2022/11/17 10:34:32;;;;;;;9.87;9.20;;;12.40;99.90;;;;;;4903191;29;20202;-86
2022/11/17 10:37:05;;;;;;;10.20;9.27;;;12.40;99.90;;;;;;4891526;29;20212;-86
2022/11/17 10:39:36;;;;;;;9.70;9.00;;;12.30;99.90;;;;;;4896051;29;20224;-87
2022/11/17 10:42:18;;;;;;;9.47;8.83;;;12.30;99.90;;;;;;4893815;29;20216;-85
2022/11/17 10:44:50;;;;;;;9.10;8.60;;;12.40;99.90;;;;;;4897810;29;20210;-86
2022/11/17 10:47:27;;;;;;;9.73;8.97;;;12.40;99.90;;;;;;4892167;29;20665;-86
2022/11/17 10:50:18;;;;;;;9.37;8.87;;;12.30;99.90;;;;;;4892892;29;20677;-86
2022/11/17 10:52:45;;;;;;;9.93;9.30;;;12.30;99.90;;;;;;4890544;29;20232;-86
2022/11/17 10:55:44;;;;;;;10.10;9.20;;;12.30;99.90;;;;;;4887805;29;20203;-86
2022/11/17 10:58:53;;;;;;;9.63;9.03;;;12.40;99.90;;;;;;4834157;29;20720;-86
2022/11/17 11:01:46;;;;;;;9.90;9.27;;;12.40;99.90;;;;;;4847691;29;20242;-85
2022/11/17 11:05:15;;;;;;;10.40;9.40;;;12.30;99.90;;;;;;4894540;29;20265;-86
2022/11/17 11:08:14;;;;;;;10.23;9.53;;;12.10;99.90;;;;;;4822532;29;20208;-84
2022/11/17 11:11:02;;;;;;;10.37;9.67;;;11.90;99.90;;;;;;4868848;29;20275;-85
2022/11/17 11:13:44;;;;;;;10.43;9.60;;;11.80;99.90;;;;;;4898494;29;20279;-87
2022/11/17 11:16:31;;;;;;;10.33;9.60;;;11.70;99.90;;;;;;4896663;29;20290;-86
2022/11/17 11:19:11;;;;;;;10.37;9.60;;;11.70;99.90;;;;;;4911304;29;20722;-86
2022/11/17 11:22:15;;;;;;;11.00;10.20;;;11.60;99.90;;;;;;4882597;29;21000;-86
2022/11/17 11:25:03;;;;;;;10.90;10.20;;;11.60;99.90;;;;;;4895966;29;20259;-86
2022/11/17 11:27:56;;;;;;;11.07;10.23;;;11.60;99.90;;;;;;4893095;29;20219;-85
2022/11/17 11:30:32;;;;;;;10.97;10.17;;;11.60;99.90;;;;;;4897249;29;20203;-86
2022/11/17 11:33:35;;;;;;;11.20;10.40;;;11.70;99.90;;;;;;4894331;29;20222;-86
2022/11/17 11:36:32;;;;;;;11.23;10.20;;;11.80;99.90;;;;;;4887645;29;20214;-86
2022/11/17 11:39:32;;;;;;;;;;;;;;;;;;;;;
2022/11/17 11:42:35;;;;;;;10.90;10.00;;;12.10;99.90;;;;;;4895063;29;20222;-87
2022/11/17 11:45:33;;;;;;;12.27;11.10;;;12.20;99.90;;;;;;4908031;29;20207;-86
2022/11/17 11:48:16;;;;;;;11.00;9.97;;;12.30;99.90;;;;;;4888443;29;20222;-85
2022/11/17 11:51:18;;;;;;;10.60;9.80;;;12.40;99.90;;;;;;4894048;29;20251;-87
2022/11/17 11:54:10;;;;;;;11.07;10.10;;;12.70;99.90;;;;;;4898144;29;20203;-87
2022/11/17 11:56:44;;;;;;;11.60;10.57;;;12.80;99.90;;;;;;4892081;29;20565;-86
2022/11/17 12:00:03;;;;;;;;;;;;;;;;;;;;;
2022/11/17 12:05:43;;;;;;;11.87;10.77;;;13.10;99.90;;;;;;4897998;29;20584;-87
2022/11/17 12:08:19;;;;;;;11.40;10.20;;;13.20;99.90;;;;;;4898128;29;20197;-86
2022/11/17 12:10:51;;;;;;;7.93;5.63;;;13.20;99.90;;;;;;4899963;29;20227;-81
2022/11/17 12:13:21;;;;;;;9.20;5.57;;;13.20;99.90;;;;;;4900844;29;20196;-82
2022/11/17 12:15:48;;;;;;;8.00;6.40;;;13.30;99.90;;;;;;4898665;29;20276;-81
2022/11/17 12:18:32;;;;;;;10.40;9.50;;;13.40;99.90;;;;;;4898565;29;20271;-82
2022/11/17 12:21:12;;;;;;;11.50;10.53;;;13.70;99.90;;;;;;4899335;29;20615;-81
2022/11/17 12:23:53;;;;;;;11.30;10.23;;;14.10;99.90;;;;;;4899270;29;20637;-81
2022/11/17 12:26:22;;;;;;;11.97;11.00;;;13.90;99.90;;;;;;4899851;29;20698;-81
2022/11/17 12:28:49;;;;;;;13.00;12.10;;;13.80;99.90;;;;;;4899995;29;20212;-81
2022/11/17 12:31:43;;;;;;;11.73;10.70;;;13.70;99.90;;;;;;4898530;29;20231;-81
2022/11/17 12:34:29;;;;;;;11.80;10.80;;;13.70;99.90;;;;;;4881134;29;20210;-81
2022/11/17 12:37:18;;;;;;;11.37;10.50;;;13.80;99.90;;;;;;4907855;29;20663;-81
2022/11/17 12:40:05;;;;;;;11.00;10.00;;;13.70;99.90;;;;;;4900143;29;20225;-81
2022/11/17 12:42:33;;;;;;;14.33;12.90;;;13.70;99.90;;;;;;4892514;29;20685;-81
2022/11/17 12:45:06;;;;;;;12.53;11.23;;;13.60;99.90;;;;;;4898109;29;20208;-81
2022/11/17 12:47:34;;;;;;;13.33;12.03;;;13.50;99.90;;;;;;4911408;29;20257;-81
2022/11/17 12:50:44;;;;;;;8.53;3.97;;;13.40;99.90;;;;;;4899051;29;20212;-81
2022/11/17 12:53:23;;;;;;;11.47;10.47;;;13.40;99.90;;;;;;4894109;29;20205;-81
2022/11/17 12:56:20;;;;;;;11.47;10.37;;;13.20;99.90;;;;;;4898161;29;20208;-81
2022/11/17 12:59:07;;;;;;;11.97;10.80;;;13.10;99.90;;;;;;4893422;29;20213;-81
2022/11/17 13:01:42;;;;;;;11.07;10.27;;;13.00;99.90;;;;;;4906589;29;20235;-81
2022/11/17 13:04:13;;;;;;;11.10;10.00;;;13.00;99.90;;;;;;4897779;29;20204;-81
2022/11/17 13:06:59;;;;;;;10.13;9.40;;;13.00;99.90;;;;;;4898064;29;20204;-80
2022/11/17 13:09:28;;;;;;;12.43;10.10;;;13.00;99.90;;;;;;4894654;29;20235;-81
2022/11/17 13:12:03;;;;;;;11.03;10.00;;;13.20;99.90;;;;;;4898924;29;20221;-81
2022/11/17 13:14:30;;;;;;;10.47;5.43;;;13.40;99.90;;;;;;4886311;29;20670;-81
2022/11/17 13:16:58;;;;;;;12.77;11.67;;;13.60;99.90;;;;;;4895643;29;20208;-81
2022/11/17 13:19:35;;;;;;;10.90;9.90;;;13.60;99.90;;;;;;4899917;29;20233;-80
2022/11/17 13:22:06;;;;;;;8.50;5.60;;;13.70;99.90;;;;;;4893649;29;20226;-85
2022/11/17 13:24:38;;;;;;;11.77;10.53;;;13.60;99.90;;;;;;4903062;29;20231;-81
2022/11/17 13:27:16;;;;;;;9.73;8.40;;;13.60;99.90;;;;;;4895132;29;20207;-80
2022/11/17 13:29:43;;;;;;;6.77;3.77;;;13.50;99.90;;;;;;4893250;29;20219;-81
2022/11/17 13:32:19;;;;;;;7.03;3.40;;;13.50;99.90;;;;;;4894219;29;20224;-80
2022/11/17 13:34:55;;;;;;;10.60;9.07;;;13.40;99.90;;;;;;4896575;29;20623;-81
2022/11/17 13:37:25;;;;;;;11.73;10.00;;;13.30;99.90;;;;;;4898338;29;20209;-81
2022/11/17 13:40:00;;;;;;;10.87;9.93;;;13.20;99.90;;;;;;4899153;29;20201;-81
2022/11/17 13:42:30;;;;;;;12.07;9.30;;;13.20;99.90;;;;;;4905588;29;20231;-81
2022/11/17 13:45:00;;;;;;;9.83;8.80;;;13.20;99.90;;;;;;4887693;29;20708;-81
2022/11/17 13:47:42;;;;;;;11.27;10.00;;;13.10;99.90;;;;;;4895832;29;20205;-81
2022/11/17 13:50:35;;;;;;;10.30;9.27;;;13.10;99.90;;;;;;4894702;29;20209;-81
2022/11/17 13:53:06;;;;;;;10.60;9.63;;;13.00;99.90;;;;;;4895362;29;20205;-80
2022/11/17 13:55:35;;;;;;;10.73;9.77;;;13.00;99.90;;;;;;4896498;29;20307;-81
2022/11/17 13:58:05;;;;;;;10.83;9.87;;;12.90;99.90;;;;;;4905924;29;20209;-81
2022/11/17 14:00:33;;;;;;;10.77;9.77;;;12.90;99.90;;;;;;4892571;29;20200;-81
2022/11/17 14:03:21;;;;;;;10.57;9.43;;;12.80;99.90;;;;;;4893336;29;20231;-82
2022/11/17 14:05:55;;;;;;;10.87;9.87;;;12.80;99.90;;;;;;4896191;29;20212;-82
2022/11/17 14:08:27;;;;;;;10.70;9.80;;;12.80;99.90;;;;;;4890691;29;20260;-81
2022/11/17 14:11:13;;;;;;;10.13;9.33;;;12.80;99.90;;;;;;4897091;29;20231;-81
2022/11/17 14:13:41;;;;;;;10.20;9.23;;;12.70;99.90;;;;;;4891511;29;20192;-81
2022/11/17 14:16:21;;;;;;;10.93;9.83;;;12.70;99.90;;;;;;4897241;29;20208;-82
2022/11/17 14:18:56;;;;;;;10.23;9.37;;;12.70;99.90;;;;;;4899268;29;20532;-82
2022/11/17 14:21:24;;;;;;;10.70;9.73;;;12.80;99.90;;;;;;4893504;29;20223;-82
2022/11/17 14:24:05;;;;;;;10.57;9.43;;;12.80;99.90;;;;;;4897139;29;20715;-81
2022/11/17 14:26:43;;;;;;;10.83;9.80;;;12.80;99.90;;;;;;4893914;29;20197;-82
2022/11/17 14:29:14;;;;;;;9.97;9.10;;;12.80;99.90;;;;;;4894444;29;20732;-81
2022/11/17 14:31:42;;;;;;;10.17;9.40;;;12.80;99.90;;;;;;4892725;29;20217;-82
2022/11/17 14:34:12;;;;;;;10.23;9.43;;;12.80;99.90;;;;;;4895758;29;20211;-83
2022/11/17 14:36:40;;;;;;;10.07;9.33;;;12.80;99.90;;;;;;4901132;29;20202;-83
2022/11/17 14:39:15;;;;;;;10.30;9.30;;;12.80;99.90;;;;;;4897586;29;20255;-81
2022/11/17 14:41:49;;;;;;;10.00;9.10;;;12.70;99.90;;;;;;4898346;29;20770;-83
2022/11/17 14:44:17;;;;;;;9.90;9.10;;;12.70;99.90;;;;;;4898676;29;20204;-82
2022/11/17 14:46:44;;;;;;;9.23;8.63;;;12.60;99.90;;;;;;4889131;29;20197;-82
2022/11/17 14:49:11;;;;;;;10.23;9.33;;;12.60;99.90;;;;;;4900898;29;20215;-84
2022/11/17 14:51:38;;;;;;;10.53;9.60;;;12.60;99.90;;;;;;4899031;29;20231;-81
2022/11/17 14:54:13;;;;;;;10.47;9.53;;;12.60;99.90;;;;;;4901865;29;20201;-82
2022/11/17 14:56:44;;;;;;;9.80;9.10;;;12.60;99.90;;;;;;4897260;29;20606;-84
2022/11/17 14:59:11;;;;;;;10.10;9.30;;;12.50;99.90;;;;;;4899430;29;20219;-78
2022/11/17 15:01:39;;;;;;;9.80;9.10;;;12.40;99.90;;;;;;4901646;29;20654;-78
2022/11/17 15:04:14;;;;;;;10.17;9.37;;;12.40;99.90;;;;;;4896363;29;20235;-78
2022/11/17 15:06:41;;;;;;;9.90;8.93;;;12.30;99.90;;;;;;4904612;29;20228;-78
2022/11/17 15:09:08;;;;;;;9.67;8.90;;;12.20;99.90;;;;;;4893271;29;20215;-78
2022/11/17 15:11:35;;;;;;;9.90;9.20;;;12.20;99.90;;;;;;4901176;29;20223;-78
2022/11/17 15:14:04;;;;;;;9.60;8.90;;;12.20;99.90;;;;;;4900835;29;20195;-78
2022/11/17 15:16:31;;;;;;;10.03;9.40;;;12.10;99.90;;;;;;4891242;29;20224;-78
2022/11/17 15:18:59;;;;;;;10.13;9.43;;;12.00;99.90;;;;;;4904757;29;20279;-79
2022/11/17 15:21:26;;;;;;;9.77;9.10;;;12.00;99.90;;;;;;4901038;29;20762;-78
2022/11/17 15:23:53;;;;;;;9.40;8.80;;;11.90;99.90;;;;;;4904247;29;20255;-79
2022/11/17 15:26:22;;;;;;;9.57;8.97;;;11.80;99.90;;;;;;4893633;29;20210;-78
2022/11/17 15:28:49;;;;;;;10.40;9.60;;;11.70;99.90;;;;;;4902477;29;20199;-79
2022/11/17 15:31:19;;;;;;;10.30;9.50;;;11.60;99.90;;;;;;4896525;29;20223;-78
2022/11/17 15:33:47;;;;;;;9.90;9.30;;;11.60;99.90;;;;;;4899604;29;20204;-78
2022/11/17 15:36:16;;;;;;;11.00;10.30;;;11.50;99.90;;;;;;4901136;29;20249;-79
2022/11/17 15:38:43;;;;;;;10.77;10.07;;;11.50;99.90;;;;;;4904577;29;20194;-79
2022/11/17 15:41:12;;;;;;;10.80;10.03;;;11.40;99.90;;;;;;4901930;29;20234;-78
2022/11/17 15:43:40;;;;;;;10.23;9.63;;;11.30;99.90;;;;;;4907969;29;20571;-78
2022/11/17 15:46:09;;;;;;;10.50;9.90;;;11.20;99.90;;;;;;4893346;29;20209;-78
2022/11/17 15:48:41;;;;;;;10.70;10.00;;;11.20;99.90;;;;;;4902770;29;20205;-78
2022/11/17 15:51:17;;;;;;;10.93;10.20;;;11.20;99.90;;;;;;4915277;29;20232;-83
2022/11/17 15:53:45;;;;;;;10.90;9.90;;;11.20;99.90;;;;;;4899220;29;20257;-84
2022/11/17 15:56:16;;;;;;;10.20;9.60;;;11.10;99.90;;;;;;4899775;29;20226;-82
2022/11/17 15:58:43;;;;;;;10.17;9.37;;;11.10;99.90;;;;;;4898988;29;20203;-82
2022/11/17 16:01:25;;;;;;;10.63;9.93;;;11.10;99.90;;;;;;4892435;29;20228;-87
2022/11/17 16:03:58;;;;;;;10.67;9.87;;;11.00;99.90;;;;;;4910222;29;20296;-83
2022/11/17 16:06:25;;;;;;;10.27;9.57;;;11.00;99.90;;;;;;4900799;29;20213;-80
2022/11/17 16:24:14;;;;;;;10.93;10.10;;;10.70;99.90;;;;;;4826809;29;20218;-81
2022/11/17 16:26:40;;;;;;;10.57;9.87;;;10.70;99.90;;;;;;4864017;29;20675;-81
2022/11/17 16:29:08;;;;;;;11.47;10.57;;;10.70;99.90;;;;;;4897809;29;20208;-81
2022/11/17 16:32:10;;;;;;;12.03;11.10;;;10.70;99.90;;;;;;4896231;29;20244;-84
2022/11/17 16:35:37;;;;;;;11.33;10.60;;;10.70;99.90;;;;;;4885848;29;20209;-84
2022/11/17 16:39:10;;;;;;;11.47;10.63;;;10.70;99.90;;;;;;4777202;29;20207;-84
2022/11/17 16:45:42;;;;;;;11.40;10.53;;;10.70;99.90;;;;;;4809154;29;20302;-80
2022/11/17 16:48:09;;;;;;;11.47;10.67;;;10.70;99.90;;;;;;4894916;29;20232;-81